sensor_id;sensor_type;location;lat;lon;timestamp;temperature;humidity
63219;DHT22;49320;52.512;13.448;2023-11-21T00:02:26;11.80;91.00
63219;DHT22;49320;52.512;13.448;2023-11-21T00:04:54;11.70;91.10
63219;DHT22;49320;52.512;13.448;2023-11-21T00:07:21;11.60;91.10
63219;DHT22;49320;52.512;13.448;2023-11-21T00:09:48;11.60;91.10
63219;DHT22;49320;52.512;13.448;2023-11-21T00:12:15;11.50;91.20
63219;DHT22;49320;52.512;13.448;2023-11-21T00:14:42;11.50;91.30
63219;DHT22;49320;52.512;13.448;2023-11-21T00:17:09;11.40;91.20
63219;DHT22;49320;52.512;13.448;2023-11-21T00:19:36;11.40;91.30
63219;DHT22;49320;52.512;13.448;2023-11-21T00:22:03;11.30;91.30
63219;DHT22;49320;52.512;13.448;2023-11-21T00:24:30;11.30;91.30
63219;DHT22;49320;52.512;13.448;2023-11-21T00:26:56;11.20;91.30
63219;DHT22;49320;52.512;13.448;2023-11-21T00:29:23;11.20;91.20
63219;DHT22;49320;52.512;13.448;2023-11-21T00:31:50;11.10;91.20
63219;DHT22;49320;52.512;13.448;2023-11-21T00:34:17;11.10;91.20
63219;DHT22;49320;52.512;13.448;2023-11-21T00:36:44;11.00;91.20
63219;DHT22;49320;52.512;13.448;2023-11-21T00:39:11;10.90;91.20
63219;DHT22;49320;52.512;13.448;2023-11-21T00:41:38;10.90;91.20
63219;DHT22;49320;52.512;13.448;2023-11-21T00:44:05;10.90;91.20
63219;DHT22;49320;52.512;13.448;2023-11-21T00:46:33;10.80;91.20
63219;DHT22;49320;52.512;13.448;2023-11-21T00:49:01;10.70;91.20
63219;DHT22;49320;52.512;13.448;2023-11-21T00:51:30;10.70;91.00
63219;DHT22;49320;52.512;13.448;2023-11-21T00:53:58;10.60;91.20
63219;DHT22;49320;52.512;13.448;2023-11-21T00:56:25;10.60;91.20
63219;DHT22;49320;52.512;13.448;2023-11-21T00:58:51;10.60;91.30
63219;DHT22;49320;52.512;13.448;2023-11-21T01:01:20;10.50;91.30
63219;DHT22;49320;52.512;13.448;2023-11-21T01:03:49;10.50;91.40
63219;DHT22;49320;52.512;13.448;2023-11-21T01:06:16;10.40;91.40
63219;DHT22;49320;52.512;13.448;2023-11-21T01:08:44;10.40;91.40
63219;DHT22;49320;52.512;13.448;2023-11-21T01:11:11;10.40;91.40
63219;DHT22;49320;52.512;13.448;2023-11-21T01:13:39;10.30;91.60
63219;DHT22;49320;52.512;13.448;2023-11-21T01:16:07;10.30;91.60
63219;DHT22;49320;52.512;13.448;2023-11-21T01:18:38;10.30;91.40
63219;DHT22;49320;52.512;13.448;2023-11-21T01:21:05;10.20;91.70
63219;DHT22;49320;52.512;13.448;2023-11-21T01:25:59;10.50;93.90
63219;DHT22;49320;52.512;13.448;2023-11-21T01:28:26;10.20;91.70
63219;DHT22;49320;52.512;13.448;2023-11-21T01:30:53;10.20;91.70
63219;DHT22;49320;52.512;13.448;2023-11-21T01:33:23;10.10;91.60
63219;DHT22;49320;52.512;13.448;2023-11-21T01:35:52;10.10;91.60
63219;DHT22;49320;52.512;13.448;2023-11-21T01:38:21;10.10;91.50
63219;DHT22;49320;52.512;13.448;2023-11-21T01:40:48;10.00;91.40
63219;DHT22;49320;52.512;13.448;2023-11-21T01:43:15;10.00;91.40
63219;DHT22;49320;52.512;13.448;2023-11-21T01:45:43;10.00;91.30
63219;DHT22;49320;52.512;13.448;2023-11-21T01:48:12;9.90;91.30
63219;DHT22;49320;52.512;13.448;2023-11-21T01:50:40;9.90;91.10
63219;DHT22;49320;52.512;13.448;2023-11-21T01:53:08;9.90;91.30
63219;DHT22;49320;52.512;13.448;2023-11-21T01:55:35;9.90;91.40
63219;DHT22;49320;52.512;13.448;2023-11-21T01:58:02;9.80;91.30
63219;DHT22;49320;52.512;13.448;2023-11-21T02:00:29;9.90;91.30
63219;DHT22;49320;52.512;13.448;2023-11-21T02:02:58;9.80;91.30
63219;DHT22;49320;52.512;13.448;2023-11-21T02:05:26;9.90;92.00
63219;DHT22;49320;52.512;13.448;2023-11-21T02:07:53;9.80;91.10
63219;DHT22;49320;52.512;13.448;2023-11-21T02:10:19;9.70;91.10
63219;DHT22;49320;52.512;13.448;2023-11-21T02:15:18;9.80;92.90
63219;DHT22;49320;52.512;13.448;2023-11-21T02:17:49;10.00;93.00
63219;DHT22;49320;52.512;13.448;2023-11-21T02:20:21;9.70;91.30
63219;DHT22;49320;52.512;13.448;2023-11-21T02:22:55;9.70;91.20
63219;DHT22;49320;52.512;13.448;2023-11-21T02:25:29;9.70;93.70
63219;DHT22;49320;52.512;13.448;2023-11-21T02:27:58;9.60;91.10
63219;DHT22;49320;52.512;13.448;2023-11-21T02:30:27;9.70;93.40
63219;DHT22;49320;52.512;13.448;2023-11-21T02:32:55;9.60;93.80
63219;DHT22;49320;52.512;13.448;2023-11-21T02:35:24;9.30;93.70
63219;DHT22;49320;52.512;13.448;2023-11-21T02:37:54;9.50;91.40
63219;DHT22;49320;52.512;13.448;2023-11-21T02:40:21;7.00;93.00
63219;DHT22;49320;52.512;13.448;2023-11-21T02:42:51;9.50;91.30
63219;DHT22;49320;52.512;13.448;2023-11-21T02:45:19;9.50;91.40
63219;DHT22;49320;52.512;13.448;2023-11-21T02:47:51;9.50;91.40
63219;DHT22;49320;52.512;13.448;2023-11-21T02:50:21;9.50;93.70
63219;DHT22;49320;52.512;13.448;2023-11-21T02:52:49;9.50;91.40
63219;DHT22;49320;52.512;13.448;2023-11-21T02:55:17;9.40;91.30
63219;DHT22;49320;52.512;13.448;2023-11-21T02:57:44;9.50;91.40
63219;DHT22;49320;52.512;13.448;2023-11-21T03:00:11;5.80;92.70
63219;DHT22;49320;52.512;13.448;2023-11-21T03:02:41;9.40;91.20
63219;DHT22;49320;52.512;13.448;2023-11-21T03:05:10;9.40;91.20
63219;DHT22;49320;52.512;13.448;2023-11-21T03:07:38;9.40;91.20
63219;DHT22;49320;52.512;13.448;2023-11-21T03:10:10;9.40;91.10
63219;DHT22;49320;52.512;13.448;2023-11-21T03:12:38;9.40;90.80
63219;DHT22;49320;52.512;13.448;2023-11-21T03:15:06;9.40;91.20
63219;DHT22;49320;52.512;13.448;2023-11-21T03:17:34;9.40;91.20
63219;DHT22;49320;52.512;13.448;2023-11-21T03:20:01;9.40;91.20
63219;DHT22;49320;52.512;13.448;2023-11-21T03:22:30;9.40;91.20
63219;DHT22;49320;52.512;13.448;2023-11-21T03:24:58;9.30;90.90
63219;DHT22;49320;52.512;13.448;2023-11-21T03:27:25;9.40;91.30
63219;DHT22;49320;52.512;13.448;2023-11-21T03:29:51;9.40;91.20
63219;DHT22;49320;52.512;13.448;2023-11-21T03:32:18;9.50;93.30
63219;DHT22;49320;52.512;13.448;2023-11-21T03:34:56;9.40;91.10
63219;DHT22;49320;52.512;13.448;2023-11-21T03:37:25;9.30;91.00
63219;DHT22;49320;52.512;13.448;2023-11-21T03:39:55;9.40;91.10
63219;DHT22;49320;52.512;13.448;2023-11-21T03:42:24;9.40;91.10
63219;DHT22;49320;52.512;13.448;2023-11-21T03:44:53;9.40;91.10
63219;DHT22;49320;52.512;13.448;2023-11-21T03:47:20;9.40;91.00
63219;DHT22;49320;52.512;13.448;2023-11-21T03:49:48;9.40;90.60
63219;DHT22;49320;52.512;13.448;2023-11-21T03:52:15;9.80;93.10
63219;DHT22;49320;52.512;13.448;2023-11-21T03:54:42;9.20;92.90
63219;DHT22;49320;52.512;13.448;2023-11-21T03:57:11;9.40;90.60
63219;DHT22;49320;52.512;13.448;2023-11-21T03:59:42;9.40;90.60
63219;DHT22;49320;52.512;13.448;2023-11-21T04:04:37;9.40;90.20
63219;DHT22;49320;52.512;13.448;2023-11-21T04:07:04;9.30;90.40
63219;DHT22;49320;52.512;13.448;2023-11-21T04:09:32;9.30;90.30
63219;DHT22;49320;52.512;13.448;2023-11-21T04:11:59;9.30;90.20
63219;DHT22;49320;52.512;13.448;2023-11-21T04:14:26;9.20;90.20
63219;DHT22;49320;52.512;13.448;2023-11-21T04:16:53;9.20;90.10
63219;DHT22;49320;52.512;13.448;2023-11-21T04:19:20;9.20;90.10
63219;DHT22;49320;52.512;13.448;2023-11-21T04:21:47;9.20;90.00
63219;DHT22;49320;52.512;13.448;2023-11-21T04:24:14;9.20;90.00
63219;DHT22;49320;52.512;13.448;2023-11-21T04:26:41;9.10;90.00
63219;DHT22;49320;52.512;13.448;2023-11-21T04:29:08;9.10;89.60
63219;DHT22;49320;52.512;13.448;2023-11-21T04:31:35;9.10;89.20
63219;DHT22;49320;52.512;13.448;2023-11-21T04:34:02;9.10;88.80
63219;DHT22;49320;52.512;13.448;2023-11-21T04:36:30;9.10;88.50
63219;DHT22;49320;52.512;13.448;2023-11-21T04:38:57;9.00;88.60
63219;DHT22;49320;52.512;13.448;2023-11-21T04:41:24;9.00;88.70
63219;DHT22;49320;52.512;13.448;2023-11-21T04:43:52;9.00;88.80
63219;DHT22;49320;52.512;13.448;2023-11-21T04:46:18;7.60;91.60
63219;DHT22;49320;52.512;13.448;2023-11-21T04:48:45;8.90;89.00
63219;DHT22;49320;52.512;13.448;2023-11-21T04:51:13;8.90;88.00
63219;DHT22;49320;52.512;13.448;2023-11-21T04:53:40;8.90;89.00
63219;DHT22;49320;52.512;13.448;2023-11-21T04:56:07;8.90;89.20
63219;DHT22;49320;52.512;13.448;2023-11-21T04:58:34;8.90;89.00
63219;DHT22;49320;52.512;13.448;2023-11-21T05:01:02;8.90;88.90
63219;DHT22;49320;52.512;13.448;2023-11-21T05:03:34;8.90;88.90
63219;DHT22;49320;52.512;13.448;2023-11-21T05:06:01;8.90;88.90
63219;DHT22;49320;52.512;13.448;2023-11-21T05:08:28;8.90;88.90
63219;DHT22;49320;52.512;13.448;2023-11-21T05:10:55;9.00;89.00
63219;DHT22;49320;52.512;13.448;2023-11-21T05:13:22;9.00;88.90
63219;DHT22;49320;52.512;13.448;2023-11-21T05:15:54;8.90;88.90
63219;DHT22;49320;52.512;13.448;2023-11-21T05:18:25;8.90;88.70
63219;DHT22;49320;52.512;13.448;2023-11-21T05:20:56;8.90;88.80
63219;DHT22;49320;52.512;13.448;2023-11-21T05:23:23;8.90;88.80
63219;DHT22;49320;52.512;13.448;2023-11-21T05:25:51;8.90;88.70
63219;DHT22;49320;52.512;13.448;2023-11-21T05:28:18;9.00;88.40
63219;DHT22;49320;52.512;13.448;2023-11-21T05:30:45;9.00;88.00
63219;DHT22;49320;52.512;13.448;2023-11-21T05:33:12;8.90;87.80
63219;DHT22;49320;52.512;13.448;2023-11-21T05:35:39;8.90;87.30
63219;DHT22;49320;52.512;13.448;2023-11-21T05:38:06;8.90;88.00
63219;DHT22;49320;52.512;13.448;2023-11-21T05:40:33;8.90;87.80
63219;DHT22;49320;52.512;13.448;2023-11-21T05:43:00;8.90;87.50
63219;DHT22;49320;52.512;13.448;2023-11-21T05:45:27;8.90;87.60
63219;DHT22;49320;52.512;13.448;2023-11-21T05:47:55;9.00;91.30
63219;DHT22;49320;52.512;13.448;2023-11-21T05:50:22;8.80;91.30
63219;DHT22;49320;52.512;13.448;2023-11-21T05:52:49;8.60;91.00
63219;DHT22;49320;52.512;13.448;2023-11-21T05:55:16;8.80;87.90
63219;DHT22;49320;52.512;13.448;2023-11-21T05:57:44;8.80;87.90
63219;DHT22;49320;52.512;13.448;2023-11-21T06:00:13;8.80;88.00
63219;DHT22;49320;52.512;13.448;2023-11-21T06:02:48;8.80;87.80
63219;DHT22;49320;52.512;13.448;2023-11-21T06:05:25;8.90;88.10
63219;DHT22;49320;52.512;13.448;2023-11-21T06:07:54;8.90;88.00
63219;DHT22;49320;52.512;13.448;2023-11-21T06:10:26;8.80;91.30
63219;DHT22;49320;52.512;13.448;2023-11-21T06:12:55;8.80;88.10
63219;DHT22;49320;52.512;13.448;2023-11-21T06:15:25;8.70;87.80
63219;DHT22;49320;52.512;13.448;2023-11-21T06:22:49;8.80;87.00
63219;DHT22;49320;52.512;13.448;2023-11-21T06:25:17;8.70;87.40
63219;DHT22;49320;52.512;13.448;2023-11-21T06:27:45;8.80;90.30
63219;DHT22;49320;52.512;13.448;2023-11-21T06:30:14;8.70;87.10
63219;DHT22;49320;52.512;13.448;2023-11-21T06:32:43;8.70;87.30
63219;DHT22;49320;52.512;13.448;2023-11-21T06:35:13;8.70;87.40
63219;DHT22;49320;52.512;13.448;2023-11-21T06:37:40;8.70;87.70
63219;DHT22;49320;52.512;13.448;2023-11-21T06:40:07;8.70;87.80
63219;DHT22;49320;52.512;13.448;2023-11-21T06:42:36;8.70;86.70
63219;DHT22;49320;52.512;13.448;2023-11-21T06:45:05;8.60;90.50
63219;DHT22;49320;52.512;13.448;2023-11-21T06:47:32;8.70;87.00
63219;DHT22;49320;52.512;13.448;2023-11-21T06:49:59;8.40;91.10
63219;DHT22;49320;52.512;13.448;2023-11-21T06:54:55;8.50;91.30
63219;DHT22;49320;52.512;13.448;2023-11-21T06:57:24;8.80;89.40
63219;DHT22;49320;52.512;13.448;2023-11-21T06:59:51;8.70;86.20
63219;DHT22;49320;52.512;13.448;2023-11-21T07:02:18;8.70;86.50
63219;DHT22;49320;52.512;13.448;2023-11-21T07:04:46;8.70;86.60
63219;DHT22;49320;52.512;13.448;2023-11-21T07:07:13;8.60;87.30
63219;DHT22;49320;52.512;13.448;2023-11-21T07:09:39;8.60;86.90
63219;DHT22;49320;52.512;13.448;2023-11-21T07:12:07;8.60;86.80
63219;DHT22;49320;52.512;13.448;2023-11-21T07:14:34;8.60;86.80
63219;DHT22;49320;52.512;13.448;2023-11-21T07:17:01;8.60;86.80
63219;DHT22;49320;52.512;13.448;2023-11-21T07:19:29;8.60;86.70
63219;DHT22;49320;52.512;13.448;2023-11-21T07:21:56;8.60;86.30
63219;DHT22;49320;52.512;13.448;2023-11-21T07:24:23;8.60;89.70
63219;DHT22;49320;52.512;13.448;2023-11-21T07:26:53;8.60;90.20
63219;DHT22;49320;52.512;13.448;2023-11-21T07:29:23;8.60;85.70
63219;DHT22;49320;52.512;13.448;2023-11-21T07:31:53;8.60;89.80
63219;DHT22;49320;52.512;13.448;2023-11-21T07:34:21;8.60;86.10
63219;DHT22;49320;52.512;13.448;2023-11-21T07:36:48;8.50;86.90
63219;DHT22;49320;52.512;13.448;2023-11-21T07:39:15;8.50;86.50
63219;DHT22;49320;52.512;13.448;2023-11-21T07:41:43;8.60;86.30
63219;DHT22;49320;52.512;13.448;2023-11-21T07:44:16;8.60;85.10
63219;DHT22;49320;52.512;13.448;2023-11-21T07:46:47;8.50;85.90
63219;DHT22;49320;52.512;13.448;2023-11-21T07:49:16;8.60;83.70
63219;DHT22;49320;52.512;13.448;2023-11-21T07:51:47;8.50;85.40
63219;DHT22;49320;52.512;13.448;2023-11-21T07:54:13;8.60;85.70
63219;DHT22;49320;52.512;13.448;2023-11-21T07:56:40;8.60;85.60
63219;DHT22;49320;52.512;13.448;2023-11-21T07:59:07;8.60;85.10
63219;DHT22;49320;52.512;13.448;2023-11-21T08:04:01;8.50;90.30
63219;DHT22;49320;52.512;13.448;2023-11-21T08:08:59;8.40;90.10
63219;DHT22;49320;52.512;13.448;2023-11-21T08:11:26;8.60;83.60
63219;DHT22;49320;52.512;13.448;2023-11-21T08:13:55;9.50;85.80
63219;DHT22;49320;52.512;13.448;2023-11-21T08:16:23;8.60;85.10
63219;DHT22;49320;52.512;13.448;2023-11-21T08:18:50;8.80;89.30
63219;DHT22;49320;52.512;13.448;2023-11-21T08:21:18;8.60;85.00
63219;DHT22;49320;52.512;13.448;2023-11-21T08:23:45;8.60;85.10
63219;DHT22;49320;52.512;13.448;2023-11-21T08:26:16;8.60;85.00
63219;DHT22;49320;52.512;13.448;2023-11-21T08:28:43;8.60;84.20
63219;DHT22;49320;52.512;13.448;2023-11-21T08:31:10;8.60;84.60
63219;DHT22;49320;52.512;13.448;2023-11-21T08:33:39;8.70;84.80
63219;DHT22;49320;52.512;13.448;2023-11-21T08:36:09;8.60;84.40
63219;DHT22;49320;52.512;13.448;2023-11-21T08:38:37;8.70;83.80
63219;DHT22;49320;52.512;13.448;2023-11-21T08:41:05;8.60;83.80
63219;DHT22;49320;52.512;13.448;2023-11-21T08:43:37;8.70;83.00
63219;DHT22;49320;52.512;13.448;2023-11-21T08:46:06;8.70;84.00
63219;DHT22;49320;52.512;13.448;2023-11-21T08:48:38;8.80;84.10
63219;DHT22;49320;52.512;13.448;2023-11-21T08:51:10;8.70;82.50
63219;DHT22;49320;52.512;13.448;2023-11-21T08:53:41;8.80;83.30
63219;DHT22;49320;52.512;13.448;2023-11-21T08:56:11;8.70;83.20
63219;DHT22;49320;52.512;13.448;2023-11-21T08:58:38;8.70;83.10
63219;DHT22;49320;52.512;13.448;2023-11-21T09:01:05;8.70;83.30
63219;DHT22;49320;52.512;13.448;2023-11-21T09:03:33;8.80;83.60
63219;DHT22;49320;52.512;13.448;2023-11-21T09:06:01;8.70;83.20
63219;DHT22;49320;52.512;13.448;2023-11-21T09:08:28;8.80;83.10
63219;DHT22;49320;52.512;13.448;2023-11-21T09:10:56;8.80;83.20
63219;DHT22;49320;52.512;13.448;2023-11-21T09:13:23;8.80;82.90
63219;DHT22;49320;52.512;13.448;2023-11-21T09:18:19;8.80;82.20
63219;DHT22;49320;52.512;13.448;2023-11-21T09:20:46;8.70;82.80
63219;DHT22;49320;52.512;13.448;2023-11-21T09:23:13;8.70;82.80
63219;DHT22;49320;52.512;13.448;2023-11-21T09:25:39;8.70;82.90
63219;DHT22;49320;52.512;13.448;2023-11-21T09:28:06;8.70;82.60
63219;DHT22;49320;52.512;13.448;2023-11-21T09:30:36;8.60;82.80
63219;DHT22;49320;52.512;13.448;2023-11-21T09:33:04;8.60;82.70
63219;DHT22;49320;52.512;13.448;2023-11-21T09:38:05;8.60;82.40
63219;DHT22;49320;52.512;13.448;2023-11-21T09:40:37;8.60;81.50
63219;DHT22;49320;52.512;13.448;2023-11-21T09:43:07;8.60;82.40
63219;DHT22;49320;52.512;13.448;2023-11-21T09:45:45;8.60;82.80
63219;DHT22;49320;52.512;13.448;2023-11-21T09:48:17;8.60;82.00
63219;DHT22;49320;52.512;13.448;2023-11-21T09:50:47;8.60;81.00
63219;DHT22;49320;52.512;13.448;2023-11-21T09:53:19;8.60;82.30
63219;DHT22;49320;52.512;13.448;2023-11-21T09:55:52;8.60;82.40
63219;DHT22;49320;52.512;13.448;2023-11-21T09:58:20;8.60;80.10
63219;DHT22;49320;52.512;13.448;2023-11-21T10:00:53;8.60;81.60
63219;DHT22;49320;52.512;13.448;2023-11-21T10:03:23;8.60;80.90
63219;DHT22;49320;52.512;13.448;2023-11-21T10:05:53;8.60;80.80
63219;DHT22;49320;52.512;13.448;2023-11-21T10:08:22;8.60;80.30
63219;DHT22;49320;52.512;13.448;2023-11-21T10:10:53;8.60;80.00
63219;DHT22;49320;52.512;13.448;2023-11-21T10:13:21;9.90;81.70
63219;DHT22;49320;52.512;13.448;2023-11-21T10:15:52;8.60;81.20
63219;DHT22;49320;52.512;13.448;2023-11-21T10:18:20;8.60;80.40
63219;DHT22;49320;52.512;13.448;2023-11-21T10:20:49;8.70;81.40
63219;DHT22;49320;52.512;13.448;2023-11-21T10:23:21;8.70;79.80
63219;DHT22;49320;52.512;13.448;2023-11-21T10:25:51;8.70;79.70
63219;DHT22;49320;52.512;13.448;2023-11-21T10:30:48;8.60;79.30
63219;DHT22;49320;52.512;13.448;2023-11-21T10:33:15;8.70;80.50
63219;DHT22;49320;52.512;13.448;2023-11-21T10:35:45;10.50;81.50
63219;DHT22;49320;52.512;13.448;2023-11-21T10:38:22;8.50;80.80
63219;DHT22;49320;52.512;13.448;2023-11-21T10:40:51;8.50;81.10
63219;DHT22;49320;52.512;13.448;2023-11-21T10:43:19;8.50;81.00
63219;DHT22;49320;52.512;13.448;2023-11-21T10:45:46;8.50;80.90
63219;DHT22;49320;52.512;13.448;2023-11-21T10:48:14;8.50;80.90
63219;DHT22;49320;52.512;13.448;2023-11-21T10:50:46;8.40;79.60
63219;DHT22;49320;52.512;13.448;2023-11-21T10:53:15;8.40;81.10
63219;DHT22;49320;52.512;13.448;2023-11-21T10:55:42;8.40;81.10
63219;DHT22;49320;52.512;13.448;2023-11-21T10:58:13;8.30;81.00
63219;DHT22;49320;52.512;13.448;2023-11-21T11:03:12;8.30;80.50
63219;DHT22;49320;52.512;13.448;2023-11-21T11:05:46;8.30;81.30
63219;DHT22;49320;52.512;13.448;2023-11-21T11:08:21;8.20;81.50
63219;DHT22;49320;52.512;13.448;2023-11-21T11:10:54;8.30;82.30
63219;DHT22;49320;52.512;13.448;2023-11-21T11:13:21;8.00;82.10
63219;DHT22;49320;52.512;13.448;2023-11-21T11:15:49;8.20;82.40
63219;DHT22;49320;52.512;13.448;2023-11-21T11:18:17;8.20;82.10
63219;DHT22;49320;52.512;13.448;2023-11-21T11:20:47;8.20;82.30
63219;DHT22;49320;52.512;13.448;2023-11-21T11:23:46;8.20;82.30
63219;DHT22;49320;52.512;13.448;2023-11-21T11:26:39;8.20;82.20
63219;DHT22;49320;52.512;13.448;2023-11-21T11:34:59;8.20;82.10
63219;DHT22;49320;52.512;13.448;2023-11-21T11:37:30;8.10;81.80
63219;DHT22;49320;52.512;13.448;2023-11-21T11:39:58;8.10;82.00
63219;DHT22;49320;52.512;13.448;2023-11-21T11:42:26;8.10;82.30
63219;DHT22;49320;52.512;13.448;2023-11-21T11:44:53;8.10;82.70
63219;DHT22;49320;52.512;13.448;2023-11-21T11:47:25;8.10;83.00
63219;DHT22;49320;52.512;13.448;2023-11-21T11:50:02;8.10;82.10
63219;DHT22;49320;52.512;13.448;2023-11-21T11:52:47;8.10;82.90
63219;DHT22;49320;52.512;13.448;2023-11-21T11:55:21;8.10;82.30
63219;DHT22;49320;52.512;13.448;2023-11-21T11:57:53;8.10;82.70
63219;DHT22;49320;52.512;13.448;2023-11-21T12:02:58;8.10;82.90
63219;DHT22;49320;52.512;13.448;2023-11-21T12:05:32;8.20;83.20
63219;DHT22;49320;52.512;13.448;2023-11-21T12:08:03;8.10;83.30
63219;DHT22;49320;52.512;13.448;2023-11-21T12:10:32;8.10;83.00
63219;DHT22;49320;52.512;13.448;2023-11-21T12:13:09;8.10;82.80
63219;DHT22;49320;52.512;13.448;2023-11-21T12:15:37;8.10;82.40
63219;DHT22;49320;52.512;13.448;2023-11-21T12:18:06;8.10;82.90
63219;DHT22;49320;52.512;13.448;2023-11-21T12:20:33;8.10;82.80
63219;DHT22;49320;52.512;13.448;2023-11-21T12:23:06;8.70;82.90
63219;DHT22;49320;52.512;13.448;2023-11-21T12:25:36;8.00;82.60
63219;DHT22;49320;52.512;13.448;2023-11-21T12:28:03;7.80;81.90
63219;DHT22;49320;52.512;13.448;2023-11-21T12:30:34;7.90;82.70
63219;DHT22;49320;52.512;13.448;2023-11-21T12:35:33;8.00;85.30
63219;DHT22;49320;52.512;13.448;2023-11-21T12:38:02;7.90;83.20
63219;DHT22;49320;52.512;13.448;2023-11-21T12:40:29;7.90;83.10
63219;DHT22;49320;52.512;13.448;2023-11-21T12:42:58;8.10;85.30
63219;DHT22;49320;52.512;13.448;2023-11-21T12:45:28;7.90;84.00
63219;DHT22;49320;52.512;13.448;2023-11-21T12:50:35;7.90;84.10
63219;DHT22;49320;52.512;13.448;2023-11-21T12:53:08;7.90;84.80
63219;DHT22;49320;52.512;13.448;2023-11-21T12:55:43;7.90;84.60
63219;DHT22;49320;52.512;13.448;2023-11-21T12:58:16;7.90;84.70
63219;DHT22;49320;52.512;13.448;2023-11-21T13:00:48;7.90;84.60
63219;DHT22;49320;52.512;13.448;2023-11-21T13:03:16;8.00;87.20
63219;DHT22;49320;52.512;13.448;2023-11-21T13:05:47;7.90;84.20
63219;DHT22;49320;52.512;13.448;2023-11-21T13:08:21;7.90;83.90
63219;DHT22;49320;52.512;13.448;2023-11-21T13:10:55;7.90;84.00
63219;DHT22;49320;52.512;13.448;2023-11-21T13:13:27;7.70;83.80
63219;DHT22;49320;52.512;13.448;2023-11-21T13:15:59;7.90;84.00
63219;DHT22;49320;52.512;13.448;2023-11-21T13:18:28;7.80;84.10
63219;DHT22;49320;52.512;13.448;2023-11-21T13:20:59;7.80;84.20
63219;DHT22;49320;52.512;13.448;2023-11-21T13:23:28;8.00;86.20
63219;DHT22;49320;52.512;13.448;2023-11-21T13:25:58;7.60;83.30
63219;DHT22;49320;52.512;13.448;2023-11-21T13:28:33;7.80;83.20
63219;DHT22;49320;52.512;13.448;2023-11-21T13:31:01;7.70;83.40
63219;DHT22;49320;52.512;13.448;2023-11-21T13:33:38;7.60;83.60
63219;DHT22;49320;52.512;13.448;2023-11-21T13:36:07;7.60;83.70
63219;DHT22;49320;52.512;13.448;2023-11-21T13:38:36;7.60;83.40
63219;DHT22;49320;52.512;13.448;2023-11-21T13:41:08;7.60;83.10
63219;DHT22;49320;52.512;13.448;2023-11-21T13:43:36;7.50;83.00
63219;DHT22;49320;52.512;13.448;2023-11-21T13:46:04;7.50;83.00
63219;DHT22;49320;52.512;13.448;2023-11-21T13:48:40;7.30;85.90
63219;DHT22;49320;52.512;13.448;2023-11-21T13:51:09;7.40;83.70
63219;DHT22;49320;52.512;13.448;2023-11-21T13:53:47;7.40;82.80
63219;DHT22;49320;52.512;13.448;2023-11-21T13:56:17;7.40;81.90
63219;DHT22;49320;52.512;13.448;2023-11-21T13:58:49;7.30;82.80
63219;DHT22;49320;52.512;13.448;2023-11-21T14:01:21;7.30;82.80
63219;DHT22;49320;52.512;13.448;2023-11-21T14:04:03;7.30;83.00
63219;DHT22;49320;52.512;13.448;2023-11-21T14:06:49;7.30;82.90
63219;DHT22;49320;52.512;13.448;2023-11-21T14:09:20;7.20;86.60
63219;DHT22;49320;52.512;13.448;2023-11-21T14:11:53;7.20;82.60
63219;DHT22;49320;52.512;13.448;2023-11-21T14:14:24;7.20;82.40
63219;DHT22;49320;52.512;13.448;2023-11-21T14:16:53;7.50;86.70
63219;DHT22;49320;52.512;13.448;2023-11-21T14:19:20;7.10;86.60
63219;DHT22;49320;52.512;13.448;2023-11-21T14:24:15;7.00;81.80
63219;DHT22;49320;52.512;13.448;2023-11-21T14:26:46;7.30;87.30
63219;DHT22;49320;52.512;13.448;2023-11-21T14:29:17;7.00;82.70
63219;DHT22;49320;52.512;13.448;2023-11-21T14:31:47;6.60;86.00
63219;DHT22;49320;52.512;13.448;2023-11-21T14:34:15;6.90;82.70
63219;DHT22;49320;52.512;13.448;2023-11-21T14:36:46;7.00;87.60
63219;DHT22;49320;52.512;13.448;2023-11-21T14:41:51;6.90;88.10
63219;DHT22;49320;52.512;13.448;2023-11-21T14:44:20;6.80;87.50
63219;DHT22;49320;52.512;13.448;2023-11-21T14:46:47;6.70;83.20
63219;DHT22;49320;52.512;13.448;2023-11-21T14:49:17;6.60;86.90
63219;DHT22;49320;52.512;13.448;2023-11-21T14:51:48;6.70;87.80
63219;DHT22;49320;52.512;13.448;2023-11-21T14:57:26;6.50;87.50
63219;DHT22;49320;52.512;13.448;2023-11-21T14:59:53;7.00;88.20
63219;DHT22;49320;52.512;13.448;2023-11-21T15:02:24;6.90;88.50
63219;DHT22;49320;52.512;13.448;2023-11-21T15:05:16;6.80;87.50
63219;DHT22;49320;52.512;13.448;2023-11-21T15:07:45;6.40;88.30
63219;DHT22;49320;52.512;13.448;2023-11-21T15:10:12;6.50;83.60
63219;DHT22;49320;52.512;13.448;2023-11-21T15:12:42;6.40;83.50
63219;DHT22;49320;52.512;13.448;2023-11-21T15:15:11;6.50;83.70
63219;DHT22;49320;52.512;13.448;2023-11-21T15:17:40;6.40;83.70
63219;DHT22;49320;52.512;13.448;2023-11-21T15:20:10;6.40;83.80
63219;DHT22;49320;52.512;13.448;2023-11-21T15:22:45;6.40;83.60
63219;DHT22;49320;52.512;13.448;2023-11-21T15:25:12;6.40;82.70
63219;DHT22;49320;52.512;13.448;2023-11-21T15:27:40;6.40;83.20
63219;DHT22;49320;52.512;13.448;2023-11-21T15:30:08;6.40;82.80
63219;DHT22;49320;52.512;13.448;2023-11-21T15:35:02;6.40;81.90
63219;DHT22;49320;52.512;13.448;2023-11-21T15:37:29;6.40;82.50
63219;DHT22;49320;52.512;13.448;2023-11-21T15:39:57;6.30;82.20
63219;DHT22;49320;52.512;13.448;2023-11-21T15:42:24;6.30;81.90
63219;DHT22;49320;52.512;13.448;2023-11-21T15:44:51;6.50;85.50
63219;DHT22;49320;52.512;13.448;2023-11-21T15:47:18;6.50;87.10
63219;DHT22;49320;52.512;13.448;2023-11-21T15:49:45;6.50;87.20
63219;DHT22;49320;52.512;13.448;2023-11-21T15:52:16;6.10;86.40
63219;DHT22;49320;52.512;13.448;2023-11-21T15:54:43;6.30;81.90
63219;DHT22;49320;52.512;13.448;2023-11-21T15:57:13;6.20;81.90
63219;DHT22;49320;52.512;13.448;2023-11-21T15:59:41;6.20;85.50
63219;DHT22;49320;52.512;13.448;2023-11-21T16:02:09;6.10;81.80
63219;DHT22;49320;52.512;13.448;2023-11-21T16:04:39;6.20;84.00
63219;DHT22;49320;52.512;13.448;2023-11-21T16:07:08;6.30;80.60
63219;DHT22;49320;52.512;13.448;2023-11-21T16:09:36;6.40;86.00
63219;DHT22;49320;52.512;13.448;2023-11-21T16:12:05;6.30;85.70
63219;DHT22;49320;52.512;13.448;2023-11-21T16:14:35;6.60;84.60
63219;DHT22;49320;52.512;13.448;2023-11-21T16:17:08;6.40;83.70
63219;DHT22;49320;52.512;13.448;2023-11-21T16:19:37;6.30;81.30
63219;DHT22;49320;52.512;13.448;2023-11-21T16:22:05;6.40;81.20
63219;DHT22;49320;52.512;13.448;2023-11-21T16:24:32;6.40;81.30
63219;DHT22;49320;52.512;13.448;2023-11-21T16:27:00;6.40;83.60
63219;DHT22;49320;52.512;13.448;2023-11-21T16:29:28;6.40;81.20
63219;DHT22;49320;52.512;13.448;2023-11-21T16:31:57;6.40;80.70
63219;DHT22;49320;52.512;13.448;2023-11-21T16:34:24;6.40;80.40
63219;DHT22;49320;52.512;13.448;2023-11-21T16:36:54;6.40;79.70